sensor_id;sensor_type;location;lat;lon;timestamp;P1;durP1;ratioP1;P2;durP2;ratioP2
75272;SDS011;63869;52.344;16.928;2023-06-01T00:02:09;11.68;;;5.05;;
75272;SDS011;63869;52.344;16.928;2023-06-01T00:04:36;9.90;;;5.13;;
75272;SDS011;63869;52.344;16.928;2023-06-01T00:07:08;9.63;;;4.78;;
75272;SDS011;63869;52.344;16.928;2023-06-01T00:09:35;11.05;;;5.30;;
75272;SDS011;63869;52.344;16.928;2023-06-01T00:12:00;8.00;;;5.20;;
75272;SDS011;63869;52.344;16.928;2023-06-01T00:14:26;7.65;;;4.75;;
75272;SDS011;63869;52.344;16.928;2023-06-01T00:16:51;8.05;;;4.90;;
75272;SDS011;63869;52.344;16.928;2023-06-01T00:19:17;8.55;;;5.15;;
75272;SDS011;63869;52.344;16.928;2023-06-01T00:21:42;12.52;;;5.45;;
75272;SDS011;63869;52.344;16.928;2023-06-01T00:24:08;13.52;;;6.75;;
75272;SDS011;63869;52.344;16.928;2023-06-01T00:26:33;16.15;;;7.63;;
75272;SDS011;63869;52.344;16.928;2023-06-01T00:28:59;11.23;;;5.90;;
75272;SDS011;63869;52.344;16.928;2023-06-01T00:31:24;10.25;;;6.13;;
75272;SDS011;63869;52.344;16.928;2023-06-01T00:33:50;8.18;;;5.95;;
75272;SDS011;63869;52.344;16.928;2023-06-01T00:36:15;12.88;;;6.63;;
75272;SDS011;63869;52.344;16.928;2023-06-01T00:38:41;12.07;;;5.55;;
75272;SDS011;63869;52.344;16.928;2023-06-01T00:41:06;10.90;;;5.60;;
75272;SDS011;63869;52.344;16.928;2023-06-01T00:43:31;9.57;;;5.38;;
75272;SDS011;63869;52.344;16.928;2023-06-01T00:45:57;10.45;;;4.93;;
75272;SDS011;63869;52.344;16.928;2023-06-01T00:48:22;8.38;;;5.50;;
75272;SDS011;63869;52.344;16.928;2023-06-01T00:50:48;9.07;;;5.65;;
75272;SDS011;63869;52.344;16.928;2023-06-01T00:53:17;10.25;;;5.45;;
75272;SDS011;63869;52.344;16.928;2023-06-01T00:55:44;9.27;;;5.32;;
75272;SDS011;63869;52.344;16.928;2023-06-01T00:58:11;8.85;;;5.97;;
75272;SDS011;63869;52.344;16.928;2023-06-01T01:00:37;13.65;;;6.07;;
75272;SDS011;63869;52.344;16.928;2023-06-01T01:03:04;10.82;;;5.60;;
75272;SDS011;63869;52.344;16.928;2023-06-01T01:05:32;8.68;;;5.25;;
75272;SDS011;63869;52.344;16.928;2023-06-01T01:13:50;13.40;;;5.72;;
75272;SDS011;63869;52.344;16.928;2023-06-01T01:18:54;9.10;;;5.40;;
75272;SDS011;63869;52.344;16.928;2023-06-01T01:21:26;8.65;;;5.95;;
75272;SDS011;63869;52.344;16.928;2023-06-01T01:30:09;8.18;;;5.60;;
75272;SDS011;63869;52.344;16.928;2023-06-01T01:32:36;8.00;;;5.75;;
75272;SDS011;63869;52.344;16.928;2023-06-01T01:35:03;11.10;;;6.18;;
75272;SDS011;63869;52.344;16.928;2023-06-01T01:37:31;11.60;;;6.13;;
75272;SDS011;63869;52.344;16.928;2023-06-01T01:39:58;10.27;;;5.53;;
75272;SDS011;63869;52.344;16.928;2023-06-01T01:42:23;9.63;;;5.90;;
75272;SDS011;63869;52.344;16.928;2023-06-01T01:44:49;9.65;;;5.82;;
75272;SDS011;63869;52.344;16.928;2023-06-01T01:47:25;12.75;;;6.00;;
75272;SDS011;63869;52.344;16.928;2023-06-01T01:49:58;11.95;;;6.13;;
75272;SDS011;63869;52.344;16.928;2023-06-01T01:52:35;10.82;;;6.40;;
75272;SDS011;63869;52.344;16.928;2023-06-01T01:55:03;10.75;;;6.43;;
75272;SDS011;63869;52.344;16.928;2023-06-01T01:57:32;14.38;;;6.28;;
75272;SDS011;63869;52.344;16.928;2023-06-01T01:59:59;11.48;;;6.80;;
75272;SDS011;63869;52.344;16.928;2023-06-01T02:02:26;12.07;;;6.32;;
75272;SDS011;63869;52.344;16.928;2023-06-01T02:04:52;12.75;;;6.18;;
75272;SDS011;63869;52.344;16.928;2023-06-01T02:07:17;13.32;;;6.40;;
75272;SDS011;63869;52.344;16.928;2023-06-01T02:09:42;13.52;;;6.28;;
75272;SDS011;63869;52.344;16.928;2023-06-01T02:12:08;11.98;;;6.47;;
75272;SDS011;63869;52.344;16.928;2023-06-01T02:14:33;11.93;;;6.47;;
75272;SDS011;63869;52.344;16.928;2023-06-01T02:16:59;11.13;;;6.53;;
75272;SDS011;63869;52.344;16.928;2023-06-01T02:19:28;10.18;;;6.53;;
75272;SDS011;63869;52.344;16.928;2023-06-01T02:21:53;13.57;;;6.60;;
75272;SDS011;63869;52.344;16.928;2023-06-01T02:24:18;15.60;;;6.40;;
75272;SDS011;63869;52.344;16.928;2023-06-01T02:26:47;11.75;;;6.60;;
75272;SDS011;63869;52.344;16.928;2023-06-01T02:29:16;13.48;;;6.45;;
75272;SDS011;63869;52.344;16.928;2023-06-01T02:31:44;11.35;;;6.60;;
75272;SDS011;63869;52.344;16.928;2023-06-01T02:34:10;12.25;;;6.57;;
75272;SDS011;63869;52.344;16.928;2023-06-01T02:36:35;13.60;;;6.70;;
75272;SDS011;63869;52.344;16.928;2023-06-01T02:39:00;16.45;;;6.82;;
75272;SDS011;63869;52.344;16.928;2023-06-01T02:41:26;13.80;;;6.45;;
75272;SDS011;63869;52.344;16.928;2023-06-01T02:43:51;12.77;;;6.47;;
75272;SDS011;63869;52.344;16.928;2023-06-01T02:46:17;12.82;;;7.32;;
75272;SDS011;63869;52.344;16.928;2023-06-01T02:48:43;14.98;;;6.82;;
75272;SDS011;63869;52.344;16.928;2023-06-01T02:51:08;13.77;;;7.63;;
75272;SDS011;63869;52.344;16.928;2023-06-01T02:53:34;17.23;;;7.55;;
75272;SDS011;63869;52.344;16.928;2023-06-01T02:55:59;13.20;;;7.10;;
75272;SDS011;63869;52.344;16.928;2023-06-01T02:58:25;12.18;;;6.97;;
75272;SDS011;63869;52.344;16.928;2023-06-01T03:00:50;11.70;;;6.60;;
75272;SDS011;63869;52.344;16.928;2023-06-01T03:03:16;11.07;;;6.68;;
75272;SDS011;63869;52.344;16.928;2023-06-01T03:05:41;17.92;;;6.88;;
75272;SDS011;63869;52.344;16.928;2023-06-01T03:08:08;10.85;;;6.30;;
75272;SDS011;63869;52.344;16.928;2023-06-01T03:10:33;13.27;;;6.80;;
75272;SDS011;63869;52.344;16.928;2023-06-01T03:12:59;16.45;;;7.05;;
75272;SDS011;63869;52.344;16.928;2023-06-01T03:15:25;10.90;;;6.05;;
75272;SDS011;63869;52.344;16.928;2023-06-01T03:17:52;15.98;;;7.28;;
75272;SDS011;63869;52.344;16.928;2023-06-01T03:20:17;11.18;;;6.70;;
75272;SDS011;63869;52.344;16.928;2023-06-01T03:22:43;18.30;;;6.72;;
75272;SDS011;63869;52.344;16.928;2023-06-01T03:25:10;16.08;;;7.45;;
75272;SDS011;63869;52.344;16.928;2023-06-01T03:27:37;12.02;;;7.00;;
75272;SDS011;63869;52.344;16.928;2023-06-01T03:30:03;12.13;;;6.65;;
75272;SDS011;63869;52.344;16.928;2023-06-01T03:32:34;10.52;;;6.72;;
75272;SDS011;63869;52.344;16.928;2023-06-01T03:35:03;12.95;;;7.30;;
75272;SDS011;63869;52.344;16.928;2023-06-01T03:37:32;11.63;;;6.55;;
75272;SDS011;63869;52.344;16.928;2023-06-01T03:39:58;13.60;;;6.97;;
75272;SDS011;63869;52.344;16.928;2023-06-01T03:42:23;15.10;;;6.32;;
75272;SDS011;63869;52.344;16.928;2023-06-01T03:44:48;10.52;;;6.45;;
75272;SDS011;63869;52.344;16.928;2023-06-01T03:47:14;10.98;;;6.70;;
75272;SDS011;63869;52.344;16.928;2023-06-01T03:49:39;25.02;;;10.30;;
75272;SDS011;63869;52.344;16.928;2023-06-01T03:52:05;48.25;;;17.20;;
75272;SDS011;63869;52.344;16.928;2023-06-01T03:54:31;62.17;;;19.70;;
75272;SDS011;63869;52.344;16.928;2023-06-01T03:56:56;73.50;;;23.00;;
75272;SDS011;63869;52.344;16.928;2023-06-01T03:59:22;56.25;;;14.25;;
75272;SDS011;63869;52.344;16.928;2023-06-01T04:01:48;25.35;;;7.95;;
75272;SDS011;63869;52.344;16.928;2023-06-01T04:04:14;67.18;;;8.40;;
75272;SDS011;63869;52.344;16.928;2023-06-01T04:06:41;11.68;;;5.25;;
75272;SDS011;63869;52.344;16.928;2023-06-01T04:09:10;14.27;;;5.20;;
75272;SDS011;63869;52.344;16.928;2023-06-01T04:11:39;10.18;;;4.85;;
75272;SDS011;63869;52.344;16.928;2023-06-01T04:14:04;9.07;;;5.38;;
75272;SDS011;63869;52.344;16.928;2023-06-01T04:16:30;10.10;;;5.13;;
75272;SDS011;63869;52.344;16.928;2023-06-01T04:18:55;7.88;;;4.95;;
75272;SDS011;63869;52.344;16.928;2023-06-01T04:21:21;9.85;;;4.95;;
75272;SDS011;63869;52.344;16.928;2023-06-01T04:23:47;11.60;;;5.10;;
75272;SDS011;63869;52.344;16.928;2023-06-01T04:26:12;17.17;;;6.53;;
75272;SDS011;63869;52.344;16.928;2023-06-01T04:28:38;14.40;;;5.55;;
75272;SDS011;63869;52.344;16.928;2023-06-01T04:31:08;9.02;;;5.45;;
75272;SDS011;63869;52.344;16.928;2023-06-01T04:33:44;9.95;;;5.47;;
75272;SDS011;63869;52.344;16.928;2023-06-01T04:36:13;9.63;;;4.72;;
75272;SDS011;63869;52.344;16.928;2023-06-01T04:38:41;12.48;;;5.65;;
75272;SDS011;63869;52.344;16.928;2023-06-01T04:41:10;10.77;;;5.38;;
75272;SDS011;63869;52.344;16.928;2023-06-01T04:43:38;18.48;;;5.50;;
75272;SDS011;63869;52.344;16.928;2023-06-01T04:46:04;8.38;;;5.20;;
75272;SDS011;63869;52.344;16.928;2023-06-01T04:48:30;10.43;;;5.22;;
75272;SDS011;63869;52.344;16.928;2023-06-01T04:50:58;11.35;;;5.20;;
75272;SDS011;63869;52.344;16.928;2023-06-01T04:53:26;9.25;;;5.00;;
75272;SDS011;63869;52.344;16.928;2023-06-01T04:55:51;16.45;;;6.15;;
75272;SDS011;63869;52.344;16.928;2023-06-01T04:58:18;10.38;;;4.88;;
75272;SDS011;63869;52.344;16.928;2023-06-01T05:00:45;9.95;;;4.63;;
75272;SDS011;63869;52.344;16.928;2023-06-01T05:03:10;11.65;;;4.95;;
75272;SDS011;63869;52.344;16.928;2023-06-01T05:05:36;11.77;;;4.60;;
75272;SDS011;63869;52.344;16.928;2023-06-01T05:08:01;8.85;;;4.35;;
75272;SDS011;63869;52.344;16.928;2023-06-01T05:10:27;10.10;;;5.05;;
75272;SDS011;63869;52.344;16.928;2023-06-01T05:12:52;11.68;;;4.85;;
75272;SDS011;63869;52.344;16.928;2023-06-01T05:15:19;8.63;;;4.88;;
75272;SDS011;63869;52.344;16.928;2023-06-01T05:17:44;10.57;;;4.60;;
75272;SDS011;63869;52.344;16.928;2023-06-01T05:20:10;7.65;;;4.70;;
75272;SDS011;63869;52.344;16.928;2023-06-01T05:22:36;10.48;;;4.50;;
75272;SDS011;63869;52.344;16.928;2023-06-01T05:25:02;9.13;;;4.47;;
75272;SDS011;63869;52.344;16.928;2023-06-01T05:27:28;8.43;;;4.13;;
75272;SDS011;63869;52.344;16.928;2023-06-01T05:29:53;10.30;;;3.72;;
75272;SDS011;63869;52.344;16.928;2023-06-01T05:32:19;10.25;;;3.60;;
75272;SDS011;63869;52.344;16.928;2023-06-01T05:34:45;6.40;;;3.50;;
75272;SDS011;63869;52.344;16.928;2023-06-01T05:37:10;12.90;;;3.72;;
75272;SDS011;63869;52.344;16.928;2023-06-01T05:39:35;6.45;;;3.47;;
75272;SDS011;63869;52.344;16.928;2023-06-01T05:42:01;9.85;;;3.80;;
75272;SDS011;63869;52.344;16.928;2023-06-01T05:44:26;17.92;;;4.05;;
75272;SDS011;63869;52.344;16.928;2023-06-01T05:46:52;11.48;;;3.30;;
75272;SDS011;63869;52.344;16.928;2023-06-01T05:49:20;9.05;;;3.55;;
75272;SDS011;63869;52.344;16.928;2023-06-01T05:51:45;6.25;;;3.42;;
75272;SDS011;63869;52.344;16.928;2023-06-01T05:54:11;24.38;;;5.65;;
75272;SDS011;63869;52.344;16.928;2023-06-01T05:56:37;13.23;;;3.63;;
75272;SDS011;63869;52.344;16.928;2023-06-01T05:59:02;9.60;;;3.53;;
75272;SDS011;63869;52.344;16.928;2023-06-01T06:01:28;20.52;;;3.83;;
75272;SDS011;63869;52.344;16.928;2023-06-01T06:03:54;7.47;;;3.85;;
75272;SDS011;63869;52.344;16.928;2023-06-01T06:06:20;10.23;;;3.20;;
75272;SDS011;63869;52.344;16.928;2023-06-01T06:08:47;8.27;;;3.50;;
75272;SDS011;63869;52.344;16.928;2023-06-01T06:11:12;10.98;;;3.40;;
75272;SDS011;63869;52.344;16.928;2023-06-01T06:13:38;10.75;;;3.75;;
75272;SDS011;63869;52.344;16.928;2023-06-01T06:16:03;10.82;;;3.47;;
75272;SDS011;63869;52.344;16.928;2023-06-01T06:18:29;7.63;;;3.40;;
75272;SDS011;63869;52.344;16.928;2023-06-01T06:20:54;8.02;;;3.75;;
75272;SDS011;63869;52.344;16.928;2023-06-01T06:23:19;7.90;;;3.40;;
75272;SDS011;63869;52.344;16.928;2023-06-01T06:25:46;6.13;;;3.33;;
75272;SDS011;63869;52.344;16.928;2023-06-01T06:28:13;8.32;;;3.03;;
75272;SDS011;63869;52.344;16.928;2023-06-01T06:30:38;7.60;;;3.33;;
75272;SDS011;63869;52.344;16.928;2023-06-01T06:33:06;9.75;;;3.70;;
75272;SDS011;63869;52.344;16.928;2023-06-01T06:35:32;14.48;;;3.22;;
75272;SDS011;63869;52.344;16.928;2023-06-01T06:37:57;4.68;;;3.20;;
75272;SDS011;63869;52.344;16.928;2023-06-01T06:40:22;7.75;;;3.00;;
75272;SDS011;63869;52.344;16.928;2023-06-01T06:42:48;9.50;;;3.20;;
75272;SDS011;63869;52.344;16.928;2023-06-01T06:45:15;6.70;;;2.78;;
75272;SDS011;63869;52.344;16.928;2023-06-01T06:47:40;7.85;;;2.88;;
75272;SDS011;63869;52.344;16.928;2023-06-01T06:50:07;8.10;;;3.08;;
75272;SDS011;63869;52.344;16.928;2023-06-01T06:52:32;6.18;;;2.80;;
75272;SDS011;63869;52.344;16.928;2023-06-01T06:54:58;7.38;;;3.78;;
75272;SDS011;63869;52.344;16.928;2023-06-01T06:57:23;8.07;;;3.20;;
75272;SDS011;63869;52.344;16.928;2023-06-01T06:59:48;8.50;;;3.50;;
75272;SDS011;63869;52.344;16.928;2023-06-01T07:02:13;13.10;;;3.70;;
75272;SDS011;63869;52.344;16.928;2023-06-01T07:04:39;24.48;;;4.05;;
75272;SDS011;63869;52.344;16.928;2023-06-01T07:07:05;5.00;;;3.10;;
75272;SDS011;63869;52.344;16.928;2023-06-01T07:09:30;7.43;;;3.50;;
75272;SDS011;63869;52.344;16.928;2023-06-01T07:11:56;7.35;;;3.45;;
75272;SDS011;63869;52.344;16.928;2023-06-01T07:14:21;11.30;;;3.30;;
75272;SDS011;63869;52.344;16.928;2023-06-01T07:16:46;11.30;;;3.42;;
75272;SDS011;63869;52.344;16.928;2023-06-01T07:19:12;6.22;;;3.20;;
75272;SDS011;63869;52.344;16.928;2023-06-01T07:21:38;11.18;;;3.88;;
75272;SDS011;63869;52.344;16.928;2023-06-01T07:24:04;7.75;;;3.33;;
75272;SDS011;63869;52.344;16.928;2023-06-01T07:26:30;8.95;;;3.08;;
75272;SDS011;63869;52.344;16.928;2023-06-01T07:28:55;4.90;;;3.00;;
75272;SDS011;63869;52.344;16.928;2023-06-01T07:31:22;6.05;;;2.85;;
75272;SDS011;63869;52.344;16.928;2023-06-01T07:33:48;12.73;;;3.13;;
75272;SDS011;63869;52.344;16.928;2023-06-01T07:36:13;7.88;;;2.63;;
75272;SDS011;63869;52.344;16.928;2023-06-01T07:38:39;7.47;;;2.78;;
75272;SDS011;63869;52.344;16.928;2023-06-01T07:41:05;7.60;;;3.25;;
75272;SDS011;63869;52.344;16.928;2023-06-01T07:43:30;6.75;;;3.13;;
75272;SDS011;63869;52.344;16.928;2023-06-01T07:45:56;7.30;;;2.92;;
75272;SDS011;63869;52.344;16.928;2023-06-01T07:48:22;9.60;;;3.35;;
75272;SDS011;63869;52.344;16.928;2023-06-01T07:50:48;13.57;;;3.00;;
75272;SDS011;63869;52.344;16.928;2023-06-01T07:53:13;7.88;;;3.13;;
75272;SDS011;63869;52.344;16.928;2023-06-01T07:55:39;14.13;;;3.50;;
75272;SDS011;63869;52.344;16.928;2023-06-01T07:58:04;8.38;;;3.10;;
75272;SDS011;63869;52.344;16.928;2023-06-01T08:00:30;7.03;;;3.10;;
75272;SDS011;63869;52.344;16.928;2023-06-01T08:02:56;6.53;;;3.00;;
75272;SDS011;63869;52.344;16.928;2023-06-01T08:05:22;5.57;;;2.83;;
75272;SDS011;63869;52.344;16.928;2023-06-01T08:07:47;5.38;;;2.97;;
75272;SDS011;63869;52.344;16.928;2023-06-01T08:10:14;6.40;;;2.60;;
75272;SDS011;63869;52.344;16.928;2023-06-01T08:12:39;6.78;;;3.00;;
75272;SDS011;63869;52.344;16.928;2023-06-01T08:15:07;16.65;;;5.10;;
75272;SDS011;63869;52.344;16.928;2023-06-01T08:17:33;87.43;;;6.90;;
75272;SDS011;63869;52.344;16.928;2023-06-01T08:19:59;15.00;;;2.60;;
75272;SDS011;63869;52.344;16.928;2023-06-01T08:22:26;10.43;;;2.70;;
75272;SDS011;63869;52.344;16.928;2023-06-01T08:24:54;9.13;;;2.90;;
75272;SDS011;63869;52.344;16.928;2023-06-01T08:27:21;9.02;;;2.20;;
75272;SDS011;63869;52.344;16.928;2023-06-01T08:29:48;10.38;;;2.80;;
75272;SDS011;63869;52.344;16.928;2023-06-01T08:32:14;4.25;;;2.60;;
75272;SDS011;63869;52.344;16.928;2023-06-01T08:34:45;7.55;;;2.92;;
75272;SDS011;63869;52.344;16.928;2023-06-01T08:37:12;35.25;;;4.78;;
75272;SDS011;63869;52.344;16.928;2023-06-01T08:39:40;9.05;;;2.90;;
75272;SDS011;63869;52.344;16.928;2023-06-01T08:42:07;5.22;;;2.63;;
75272;SDS011;63869;52.344;16.928;2023-06-01T08:44:40;8.38;;;2.97;;
75272;SDS011;63869;52.344;16.928;2023-06-01T08:47:07;6.22;;;2.78;;
75272;SDS011;63869;52.344;16.928;2023-06-01T08:49:33;7.18;;;3.08;;
75272;SDS011;63869;52.344;16.928;2023-06-01T08:52:00;9.32;;;3.22;;
75272;SDS011;63869;52.344;16.928;2023-06-01T08:54:28;8.45;;;3.17;;
75272;SDS011;63869;52.344;16.928;2023-06-01T08:56:57;5.30;;;2.65;;
75272;SDS011;63869;52.344;16.928;2023-06-01T08:59:24;12.68;;;2.90;;
75272;SDS011;63869;52.344;16.928;2023-06-01T09:01:50;7.05;;;3.00;;
75272;SDS011;63869;52.344;16.928;2023-06-01T09:04:17;9.38;;;2.92;;
75272;SDS011;63869;52.344;16.928;2023-06-01T09:06:43;15.00;;;3.10;;
75272;SDS011;63869;52.344;16.928;2023-06-01T09:09:08;7.20;;;2.90;;
75272;SDS011;63869;52.344;16.928;2023-06-01T09:11:36;5.95;;;2.72;;
75272;SDS011;63869;52.344;16.928;2023-06-01T09:14:02;22.35;;;3.33;;
75272;SDS011;63869;52.344;16.928;2023-06-01T09:16:35;7.50;;;2.67;;
75272;SDS011;63869;52.344;16.928;2023-06-01T09:19:01;4.22;;;2.58;;
75272;SDS011;63869;52.344;16.928;2023-06-01T09:21:27;6.28;;;3.08;;
75272;SDS011;63869;52.344;16.928;2023-06-01T09:23:52;9.65;;;2.80;;
75272;SDS011;63869;52.344;16.928;2023-06-01T09:26:18;5.75;;;2.35;;
75272;SDS011;63869;52.344;16.928;2023-06-01T09:28:59;9.18;;;3.08;;
75272;SDS011;63869;52.344;16.928;2023-06-01T09:31:41;25.70;;;3.85;;
75272;SDS011;63869;52.344;16.928;2023-06-01T09:34:09;5.43;;;2.70;;
75272;SDS011;63869;52.344;16.928;2023-06-01T09:36:36;67.32;;;5.80;;
75272;SDS011;63869;52.344;16.928;2023-06-01T09:41:27;6.38;;;2.75;;
75272;SDS011;63869;52.344;16.928;2023-06-01T09:44:08;7.20;;;2.80;;
75272;SDS011;63869;52.344;16.928;2023-06-01T09:46:45;11.43;;;2.88;;
75272;SDS011;63869;52.344;16.928;2023-06-01T09:49:18;6.15;;;2.65;;
75272;SDS011;63869;52.344;16.928;2023-06-01T09:51:51;10.38;;;2.92;;
75272;SDS011;63869;52.344;16.928;2023-06-01T09:54:24;7.03;;;2.90;;
75272;SDS011;63869;52.344;16.928;2023-06-01T09:59:16;6.55;;;2.83;;
75272;SDS011;63869;52.344;16.928;2023-06-01T10:01:43;6.85;;;2.72;;
75272;SDS011;63869;52.344;16.928;2023-06-01T10:04:13;6.25;;;2.50;;
75272;SDS011;63869;52.344;16.928;2023-06-01T10:06:40;6.80;;;2.55;;
75272;SDS011;63869;52.344;16.928;2023-06-01T10:09:07;6.57;;;2.88;;
75272;SDS011;63869;52.344;16.928;2023-06-01T10:11:40;7.93;;;3.00;;
75272;SDS011;63869;52.344;16.928;2023-06-01T10:14:06;27.02;;;3.88;;
75272;SDS011;63869;52.344;16.928;2023-06-01T10:16:32;6.35;;;2.85;;
75272;SDS011;63869;52.344;16.928;2023-06-01T10:18:59;9.25;;;2.90;;
75272;SDS011;63869;52.344;16.928;2023-06-01T10:21:25;39.60;;;5.40;;
75272;SDS011;63869;52.344;16.928;2023-06-01T10:23:52;31.98;;;4.18;;
75272;SDS011;63869;52.344;16.928;2023-06-01T10:26:17;5.90;;;3.00;;
75272;SDS011;63869;52.344;16.928;2023-06-01T10:28:45;6.18;;;3.30;;
75272;SDS011;63869;52.344;16.928;2023-06-01T10:31:32;7.97;;;2.55;;
75272;SDS011;63869;52.344;16.928;2023-06-01T10:34:03;6.93;;;2.80;;
75272;SDS011;63869;52.344;16.928;2023-06-01T10:39:36;8.52;;;2.90;;
75272;SDS011;63869;52.344;16.928;2023-06-01T10:54:53;59.85;;;6.18;;
75272;SDS011;63869;52.344;16.928;2023-06-01T10:57:23;9.23;;;3.25;;
75272;SDS011;63869;52.344;16.928;2023-06-01T11:02:57;8.52;;;3.00;;
75272;SDS011;63869;52.344;16.928;2023-06-01T11:10:55;5.70;;;2.78;;
75272;SDS011;63869;52.344;16.928;2023-06-01T11:13:29;8.40;;;2.92;;
75272;SDS011;63869;52.344;16.928;2023-06-01T11:18:54;5.85;;;3.10;;
75272;SDS011;63869;52.344;16.928;2023-06-01T11:21:37;6.70;;;3.47;;
75272;SDS011;63869;52.344;16.928;2023-06-01T11:24:14;6.05;;;3.33;;
75272;SDS011;63869;52.344;16.928;2023-06-01T11:26:42;7.93;;;3.30;;
75272;SDS011;63869;52.344;16.928;2023-06-01T11:29:18;19.75;;;4.75;;
75272;SDS011;63869;52.344;16.928;2023-06-01T11:31:49;6.05;;;3.72;;
75272;SDS011;63869;52.344;16.928;2023-06-01T11:34:19;9.70;;;3.80;;
75272;SDS011;63869;52.344;16.928;2023-06-01T11:37:00;20.58;;;5.40;;
75272;SDS011;63869;52.344;16.928;2023-06-01T11:39:27;7.55;;;4.22;;
75272;SDS011;63869;52.344;16.928;2023-06-01T11:42:05;8.00;;;4.22;;
75272;SDS011;63869;52.344;16.928;2023-06-01T11:44:32;12.85;;;4.18;;
75272;SDS011;63869;52.344;16.928;2023-06-01T11:46:59;7.43;;;4.28;;
75272;SDS011;63869;52.344;16.928;2023-06-01T11:49:26;72.50;;;7.57;;
75272;SDS011;63869;52.344;16.928;2023-06-01T11:51:51;10.57;;;4.53;;
75272;SDS011;63869;52.344;16.928;2023-06-01T11:54:21;13.75;;;5.13;;
75272;SDS011;63869;52.344;16.928;2023-06-01T11:56:48;6.95;;;3.75;;
75272;SDS011;63869;52.344;16.928;2023-06-01T11:59:13;8.35;;;4.20;;
75272;SDS011;63869;52.344;16.928;2023-06-01T12:01:45;11.35;;;5.68;;
75272;SDS011;63869;52.344;16.928;2023-06-01T12:04:15;33.85;;;6.25;;
75272;SDS011;63869;52.344;16.928;2023-06-01T12:06:41;8.02;;;4.57;;
75272;SDS011;63869;52.344;16.928;2023-06-01T12:09:08;9.93;;;4.22;;
75272;SDS011;63869;52.344;16.928;2023-06-01T12:11:34;7.72;;;4.30;;
75272;SDS011;63869;52.344;16.928;2023-06-01T12:13:59;11.00;;;4.25;;
75272;SDS011;63869;52.344;16.928;2023-06-01T12:16:50;24.15;;;5.72;;
75272;SDS011;63869;52.344;16.928;2023-06-01T12:19:24;11.93;;;4.25;;
75272;SDS011;63869;52.344;16.928;2023-06-01T12:21:50;9.55;;;4.35;;
75272;SDS011;63869;52.344;16.928;2023-06-01T12:24:18;10.95;;;4.57;;
75272;SDS011;63869;52.344;16.928;2023-06-01T12:26:51;8.55;;;4.75;;
75272;SDS011;63869;52.344;16.928;2023-06-01T12:29:33;8.25;;;5.05;;
75272;SDS011;63869;52.344;16.928;2023-06-01T12:31:59;9.83;;;5.30;;
75272;SDS011;63869;52.344;16.928;2023-06-01T12:34:24;14.05;;;5.10;;
75272;SDS011;63869;52.344;16.928;2023-06-01T12:36:49;11.90;;;5.38;;
75272;SDS011;63869;52.344;16.928;2023-06-01T12:39:15;83.95;;;8.57;;
75272;SDS011;63869;52.344;16.928;2023-06-01T12:41:47;14.00;;;5.03;;
75272;SDS011;63869;52.344;16.928;2023-06-01T12:44:18;9.88;;;5.30;;
75272;SDS011;63869;52.344;16.928;2023-06-01T12:46:45;7.05;;;4.75;;
75272;SDS011;63869;52.344;16.928;2023-06-01T12:49:17;63.78;;;8.60;;
75272;SDS011;63869;52.344;16.928;2023-06-01T12:51:43;47.25;;;7.63;;
75272;SDS011;63869;52.344;16.928;2023-06-01T12:54:08;8.88;;;5.15;;
75272;SDS011;63869;52.344;16.928;2023-06-01T12:56:34;10.52;;;4.85;;
75272;SDS011;63869;52.344;16.928;2023-06-01T12:58:59;8.05;;;4.95;;
75272;SDS011;63869;52.344;16.928;2023-06-01T13:01:24;9.10;;;5.05;;
75272;SDS011;63869;52.344;16.928;2023-06-01T13:03:50;10.60;;;5.57;;
75272;SDS011;63869;52.344;16.928;2023-06-01T13:06:17;9.45;;;4.60;;
75272;SDS011;63869;52.344;16.928;2023-06-01T13:08:43;8.48;;;4.50;;
75272;SDS011;63869;52.344;16.928;2023-06-01T13:11:08;8.33;;;4.73;;
75272;SDS011;63869;52.344;16.928;2023-06-01T13:13:34;7.15;;;4.57;;
75272;SDS011;63869;52.344;16.928;2023-06-01T13:16:00;8.63;;;5.10;;
75272;SDS011;63869;52.344;16.928;2023-06-01T13:18:27;8.48;;;4.80;;
75272;SDS011;63869;52.344;16.928;2023-06-01T13:20:52;8.70;;;5.10;;
75272;SDS011;63869;52.344;16.928;2023-06-01T13:23:17;10.27;;;4.85;;
75272;SDS011;63869;52.344;16.928;2023-06-01T13:25:43;9.02;;;4.93;;
75272;SDS011;63869;52.344;16.928;2023-06-01T13:28:10;13.05;;;5.18;;
75272;SDS011;63869;52.344;16.928;2023-06-01T13:30:36;9.48;;;4.60;;
75272;SDS011;63869;52.344;16.928;2023-06-01T13:33:04;10.43;;;4.78;;
75272;SDS011;63869;52.344;16.928;2023-06-01T13:35:30;10.27;;;4.72;;
75272;SDS011;63869;52.344;16.928;2023-06-01T13:37:56;36.17;;;6.30;;
75272;SDS011;63869;52.344;16.928;2023-06-01T13:40:21;11.05;;;4.88;;
75272;SDS011;63869;52.344;16.928;2023-06-01T13:42:50;8.23;;;4.80;;
75272;SDS011;63869;52.344;16.928;2023-06-01T13:45:17;9.73;;;4.93;;
75272;SDS011;63869;52.344;16.928;2023-06-01T13:47:43;9.45;;;5.38;;
75272;SDS011;63869;52.344;16.928;2023-06-01T13:50:11;18.27;;;5.60;;
75272;SDS011;63869;52.344;16.928;2023-06-01T13:52:39;15.13;;;5.97;;
75272;SDS011;63869;52.344;16.928;2023-06-01T13:55:05;14.00;;;5.32;;
75272;SDS011;63869;52.344;16.928;2023-06-01T13:57:32;15.77;;;5.78;;
75272;SDS011;63869;52.344;16.928;2023-06-01T13:59:57;10.63;;;5.90;;
75272;SDS011;63869;52.344;16.928;2023-06-01T14:02:23;9.77;;;5.40;;
75272;SDS011;63869;52.344;16.928;2023-06-01T14:04:48;6.97;;;5.50;;
75272;SDS011;63869;52.344;16.928;2023-06-01T14:07:14;10.90;;;5.63;;
75272;SDS011;63869;52.344;16.928;2023-06-01T14:09:39;11.45;;;5.85;;
75272;SDS011;63869;52.344;16.928;2023-06-01T14:12:05;9.40;;;5.70;;
75272;SDS011;63869;52.344;16.928;2023-06-01T14:14:31;11.50;;;5.90;;
75272;SDS011;63869;52.344;16.928;2023-06-01T14:16:56;13.13;;;6.28;;
75272;SDS011;63869;52.344;16.928;2023-06-01T14:19:22;13.13;;;6.45;;
75272;SDS011;63869;52.344;16.928;2023-06-01T14:21:47;14.13;;;6.53;;
75272;SDS011;63869;52.344;16.928;2023-06-01T14:24:14;14.73;;;6.40;;
75272;SDS011;63869;52.344;16.928;2023-06-01T14:26:39;12.57;;;6.43;;
75272;SDS011;63869;52.344;16.928;2023-06-01T14:29:05;9.30;;;6.25;;
75272;SDS011;63869;52.344;16.928;2023-06-01T14:31:30;9.55;;;6.55;;
75272;SDS011;63869;52.344;16.928;2023-06-01T14:33:57;8.95;;;6.60;;
75272;SDS011;63869;52.344;16.928;2023-06-01T14:36:22;14.05;;;7.00;;
75272;SDS011;63869;52.344;16.928;2023-06-01T14:38:49;9.00;;;6.22;;
75272;SDS011;63869;52.344;16.928;2023-06-01T14:41:14;10.90;;;6.60;;
75272;SDS011;63869;52.344;16.928;2023-06-01T14:43:40;7.95;;;6.63;;
75272;SDS011;63869;52.344;16.928;2023-06-01T14:46:05;11.20;;;6.63;;
75272;SDS011;63869;52.344;16.928;2023-06-01T14:48:30;27.65;;;6.70;;
75272;SDS011;63869;52.344;16.928;2023-06-01T14:50:56;9.03;;;6.10;;
75272;SDS011;63869;52.344;16.928;2023-06-01T14:53:21;10.57;;;6.20;;
75272;SDS011;63869;52.344;16.928;2023-06-01T14:55:47;11.50;;;6.20;;
75272;SDS011;63869;52.344;16.928;2023-06-01T14:58:13;9.98;;;6.10;;
75272;SDS011;63869;52.344;16.928;2023-06-01T15:00:38;8.85;;;6.00;;
75272;SDS011;63869;52.344;16.928;2023-06-01T15:03:03;9.60;;;6.07;;
75272;SDS011;63869;52.344;16.928;2023-06-01T15:05:29;7.55;;;5.80;;
75272;SDS011;63869;52.344;16.928;2023-06-01T15:07:54;7.63;;;5.40;;
75272;SDS011;63869;52.344;16.928;2023-06-01T15:10:20;10.02;;;5.72;;
75272;SDS011;63869;52.344;16.928;2023-06-01T15:12:45;14.43;;;5.63;;
75272;SDS011;63869;52.344;16.928;2023-06-01T15:15:11;34.30;;;7.10;;